Terminal Aerodrome Forecast
Issued by NWS

Home | Current Version | Previous Version | Text Only | Print | Product List | Glossary On
Versions: 1 2 3 4 5 6 7 8 9 10 11 12 13 14 15 16 17 18 19 20 21 22 23 24 25 26 27 28 29 30 31 32 33 34
415
FTUS43 KGLD 301513 AAB
TAFMCK
TAF AMD
KMCK 301513Z 3015/0112 34012KT 6SM BR OVC009
      TEMPO 3015/3018 3SM -RASN BR
     FM301800 35014G21KT P6SM VCSH OVC010
     FM010300 34013KT P6SM VCSH OVC008=

USA.gov is the U.S. government's official web portal to all federal, state and local government web resources and services.